createdAt,value
2017-01-15T00:00:46.685Z,92.71
2017-01-15T00:01:46.288Z,93.18
2017-01-15T00:02:46.276Z,93.18
2017-01-15T00:03:46.259Z,92.99
2017-01-15T00:04:46.245Z,93.08
2017-01-15T00:05:46.231Z,93.08
2017-01-15T00:06:46.219Z,93.08
2017-01-15T00:07:46.592Z,92.8
2017-01-15T00:08:46.192Z,92.8
2017-01-15T00:09:46.190Z,92.71
2017-01-15T00:10:46.165Z,92.61
2017-01-15T00:11:46.151Z,92.8
2017-01-15T00:12:46.136Z,92.99
2017-01-15T00:13:46.122Z,92.99
2017-01-15T00:14:46.111Z,92.99
2017-01-15T00:15:46.096Z,93.08
2017-01-15T00:16:46.084Z,93.08
2017-01-15T00:17:46.071Z,93.56
2017-01-15T00:18:46.053Z,93.08
2017-01-15T00:19:46.046Z,93.56
2017-01-15T00:20:46.028Z,93.65
2017-01-15T00:21:46.014Z,93.94
2017-01-15T00:22:45.999Z,94.42
2017-01-15T00:23:45.987Z,94.04
2017-01-15T00:24:45.972Z,94.23
2017-01-15T00:25:45.961Z,94.7
2017-01-15T00:26:45.945Z,94.6
2017-01-15T00:27:45.932Z,94.89
2017-01-15T00:28:45.921Z,95.17
2017-01-15T00:29:45.904Z,95.26
2017-01-15T00:30:45.894Z,95.93
2017-01-15T00:31:45.878Z,95.26
2017-01-15T00:32:45.866Z,95.55
2017-01-15T00:33:45.851Z,96.31
2017-01-15T00:34:45.836Z,96.5
2017-01-15T00:35:45.823Z,96.69
2017-01-15T00:36:45.808Z,96.59
2017-01-15T00:37:45.796Z,96.69
2017-01-15T00:38:45.784Z,96.69
2017-01-15T00:39:45.766Z,96.5
2017-01-15T00:40:45.754Z,97.16
2017-01-15T00:41:45.740Z,96.97
2017-01-15T00:42:45.727Z,97.16
2017-01-15T00:43:45.718Z,96.97
2017-01-15T00:44:45.699Z,97.06
2017-01-15T00:45:45.686Z,97.06
2017-01-15T00:46:45.671Z,96.59
2017-01-15T00:47:45.655Z,96.97
2017-01-15T00:48:45.642Z,96.78
2017-01-15T00:49:45.631Z,97.16
2017-01-15T00:50:45.614Z,96.97
2017-01-15T00:51:45.601Z,96.97
2017-01-15T00:52:45.590Z,96.69
2017-01-15T00:53:45.573Z,96.59
2017-01-15T00:54:45.559Z,96.78
2017-01-15T00:55:45.548Z,96.78
2017-01-15T00:56:45.531Z,95.83
2017-01-15T00:57:45.521Z,96.78
2017-01-15T00:58:45.502Z,96.4
2017-01-15T00:59:45.489Z,96.4
2017-01-15T01:00:45.477Z,96.4
2017-01-15T01:01:45.467Z,96.4
2017-01-15T01:02:45.449Z,96.02
2017-01-15T01:03:45.439Z,96.02
2017-01-15T01:04:45.423Z,96.69
2017-01-15T01:05:45.408Z,96.12
2017-01-15T01:06:45.395Z,96.12
2017-01-15T01:07:45.383Z,96.21
2017-01-15T01:08:45.368Z,96.31
2017-01-15T01:09:45.354Z,96.12
2017-01-15T01:10:45.347Z,95.74
2017-01-15T01:11:45.328Z,95.64
2017-01-15T01:12:45.313Z,95.83
2017-01-15T01:13:45.299Z,96.31
2017-01-15T01:14:45.286Z,95.45
2017-01-15T01:15:45.272Z,96.12
2017-01-15T01:16:45.260Z,95.83
2017-01-15T01:17:45.243Z,96.31
2017-01-15T01:18:45.230Z,96.12
2017-01-15T01:19:45.217Z,95.93
2017-01-15T01:20:45.205Z,95.26
2017-01-15T01:21:45.188Z,95.26
2017-01-15T01:22:45.175Z,94.51
2017-01-15T01:23:45.160Z,95.07
2017-01-15T01:24:45.149Z,94.7
2017-01-15T01:25:45.133Z,94.79
2017-01-15T01:26:45.122Z,94.7
2017-01-15T01:27:45.108Z,94.23
2017-01-15T01:28:45.478Z,94.89
2017-01-15T01:29:45.081Z,94.6
2017-01-15T01:30:45.068Z,95.07
2017-01-15T01:31:45.051Z,94.6
2017-01-15T01:32:45.037Z,94.89
2017-01-15T01:33:45.024Z,95.26
2017-01-15T01:34:45.010Z,94.6
2017-01-15T01:35:45.384Z,94.89
2017-01-15T01:36:44.985Z,94.42
2017-01-15T01:37:44.969Z,94.7
2017-01-15T01:38:44.956Z,94.6
2017-01-15T01:39:44.944Z,94.98
2017-01-15T01:40:44.929Z,94.7
2017-01-15T01:41:44.916Z,95.17
2017-01-15T01:42:44.902Z,95.07
2017-01-15T01:43:44.888Z,94.89
2017-01-15T01:44:44.876Z,94.98
2017-01-15T01:45:44.861Z,94.79
2017-01-15T01:46:44.846Z,94.23
2017-01-15T01:47:44.835Z,94.23
2017-01-15T01:48:44.822Z,94.13
2017-01-15T01:49:44.806Z,94.04
2017-01-15T01:50:44.793Z,94.6
2017-01-15T01:51:44.792Z,94.23
2017-01-15T01:52:44.766Z,94.04
2017-01-15T01:53:44.752Z,93.46
2017-01-15T01:54:44.740Z,93.75
2017-01-15T01:55:44.724Z,93.94
2017-01-15T01:56:44.711Z,93.84
2017-01-15T01:57:44.698Z,94.04
2017-01-15T01:58:44.687Z,94.04
2017-01-15T01:59:44.674Z,94.04
2017-01-15T02:00:44.659Z,93.8
2017-01-15T02:01:44.644Z,93.84
2017-01-15T02:02:44.630Z,94.04
2017-01-15T02:03:44.616Z,93.94
2017-01-15T02:04:44.603Z,93.94
2017-01-15T02:05:44.591Z,93.84
2017-01-15T02:06:44.576Z,93.61
2017-01-15T02:07:44.563Z,93.42
2017-01-15T02:08:44.550Z,93.18
2017-01-15T02:09:44.541Z,92.66
2017-01-15T02:10:44.521Z,92.57
2017-01-15T02:11:44.512Z,92.76
2017-01-15T02:12:44.495Z,92.47
2017-01-15T02:13:44.480Z,92.09
2017-01-15T02:14:44.469Z,92.28
2017-01-15T02:15:44.454Z,92.47
2017-01-15T02:16:44.446Z,92.66
2017-01-15T02:17:44.429Z,92.57
2017-01-15T02:18:44.415Z,92.85
2017-01-15T02:19:44.400Z,92.57
2017-01-15T02:20:44.389Z,92.57
2017-01-15T02:21:44.402Z,91.71
2017-01-15T02:22:44.360Z,91.81
2017-01-15T02:23:44.348Z,90.58
2017-01-15T02:24:44.335Z,91.24
2017-01-15T02:25:44.321Z,91.24
2017-01-15T02:26:44.307Z,91.05
2017-01-15T02:27:44.295Z,90.77
2017-01-15T02:28:44.281Z,90.58
2017-01-15T02:29:44.269Z,90.48
2017-01-15T02:30:44.254Z,90.77
2017-01-15T02:31:44.244Z,90.77
2017-01-15T02:32:44.232Z,90.95
2017-01-15T02:33:44.213Z,90.95
2017-01-15T02:34:44.201Z,89.72
2017-01-15T02:35:44.187Z,88.64
2017-01-15T02:36:44.175Z,89.2
2017-01-15T02:37:44.161Z,88.96
2017-01-15T02:38:44.147Z,89.49
2017-01-15T02:39:44.139Z,89.96
2017-01-15T02:40:44.121Z,89.91
2017-01-15T02:41:44.110Z,90.72
2017-01-15T02:42:44.094Z,91.29
2017-01-15T02:43:44.081Z,89.58
2017-01-15T02:44:44.068Z,89.68
2017-01-15T02:45:44.055Z,90.63
2017-01-15T02:46:44.041Z,90.1
2017-01-15T02:47:44.028Z,90.44
2017-01-15T02:48:44.013Z,90.34
2017-01-15T02:49:44.001Z,90.15
2017-01-15T02:50:43.987Z,90.34
2017-01-15T02:51:44.011Z,90.44
2017-01-15T02:52:44.358Z,90.34
2017-01-15T02:53:43.948Z,90.2
2017-01-15T02:54:43.936Z,90.53
2017-01-15T02:55:43.920Z,90.44
2017-01-15T02:56:43.910Z,90.44
2017-01-15T02:57:43.894Z,90.39
2017-01-15T02:58:43.879Z,90.25
2017-01-15T02:59:43.865Z,90.53
2017-01-15T03:00:43.853Z,90.77
2017-01-15T03:01:43.839Z,90.34
2017-01-15T03:02:43.825Z,90.91
2017-01-15T03:03:43.816Z,90.44
2017-01-15T03:04:43.801Z,90.34
2017-01-15T03:05:43.786Z,90.44
2017-01-15T03:06:43.772Z,90.44
2017-01-15T03:07:43.758Z,90.2
2017-01-15T03:08:43.746Z,90.29
2017-01-15T03:09:43.731Z,90.44
2017-01-15T03:10:43.717Z,90.44
2017-01-15T03:11:43.706Z,90.48
2017-01-15T03:12:43.692Z,89.96
2017-01-15T03:13:43.678Z,90.63
2017-01-15T03:14:43.664Z,90.44
2017-01-15T03:15:43.655Z,90.48
2017-01-15T03:16:43.637Z,90.63
2017-01-15T03:17:43.624Z,90.86
2017-01-15T03:18:43.610Z,91.52
2017-01-15T03:19:43.599Z,91.62
2017-01-15T03:20:43.582Z,91.52
2017-01-15T03:21:43.571Z,91.81
2017-01-15T03:22:43.557Z,91.43
2017-01-15T03:23:43.543Z,91.71
2017-01-15T03:24:43.552Z,92.19
2017-01-15T03:25:43.516Z,92.28
2017-01-15T03:26:43.504Z,91.71
2017-01-15T03:27:43.489Z,91.71
2017-01-15T03:28:43.480Z,91.52
2017-01-15T03:29:43.462Z,91.71
2017-01-15T03:30:43.451Z,91.43
2017-01-15T03:31:43.446Z,91.24
2017-01-15T03:32:43.425Z,90.58
2017-01-15T03:33:43.409Z,91
2017-01-15T03:34:43.395Z,91.48
2017-01-15T03:35:43.382Z,92.24
2017-01-15T03:36:43.369Z,91.81
2017-01-15T03:37:43.355Z,91.86
2017-01-15T03:38:43.342Z,91.57
2017-01-15T03:39:43.328Z,91.67
2017-01-15T03:40:43.315Z,91.95
2017-01-15T03:41:43.301Z,92.24
2017-01-15T03:42:43.286Z,92.14
2017-01-15T03:43:43.273Z,91.76
2017-01-15T03:44:43.258Z,91.48
2017-01-15T03:45:43.247Z,91.57
2017-01-15T03:46:43.232Z,91.38
2017-01-15T03:47:43.219Z,90.81
2017-01-15T03:48:43.206Z,90.91
2017-01-15T03:49:43.194Z,90.53
2017-01-15T03:50:43.178Z,91.19
2017-01-15T03:51:43.164Z,90.81
2017-01-15T03:52:43.159Z,90.81
2017-01-15T03:53:43.137Z,90.91
2017-01-15T03:54:43.123Z,91.19
2017-01-15T03:55:43.109Z,91.1
2017-01-15T03:56:43.097Z,91.1
2017-01-15T03:57:43.083Z,90.91
2017-01-15T03:58:43.069Z,90.25
2017-01-15T03:59:43.060Z,90.53
2017-01-15T04:00:43.042Z,90.91
2017-01-15T04:01:43.030Z,91.1
2017-01-15T04:02:43.015Z,91.1
2017-01-15T04:03:43.010Z,90.63
2017-01-15T04:04:42.987Z,91
2017-01-15T04:05:42.973Z,91.19
2017-01-15T04:06:42.961Z,91.19
2017-01-15T04:07:42.950Z,90.81
2017-01-15T04:08:42.932Z,92.14
2017-01-15T04:09:42.922Z,91.29
2017-01-15T04:10:42.906Z,91.86
2017-01-15T04:11:42.892Z,92.52
2017-01-15T04:12:42.880Z,92.33
2017-01-15T04:13:42.865Z,91.67
2017-01-15T04:14:42.851Z,91.1
2017-01-15T04:15:42.838Z,91.1
2017-01-15T04:16:42.826Z,91.19
2017-01-15T04:17:42.811Z,91.38
2017-01-15T04:18:42.809Z,91.48
2017-01-15T04:19:42.783Z,92.71
2017-01-15T04:20:42.770Z,93.08
2017-01-15T04:21:42.756Z,92.99
2017-01-15T04:22:42.741Z,93.46
2017-01-15T04:23:42.729Z,93.65
2017-01-15T04:24:42.715Z,94.42
2017-01-15T04:25:42.701Z,94.04
2017-01-15T04:26:42.689Z,94.23
2017-01-15T04:27:42.673Z,94.32
2017-01-15T04:28:42.659Z,93.94
2017-01-15T04:29:42.648Z,94.23
2017-01-15T04:30:42.633Z,94.32
2017-01-15T04:31:42.619Z,94.42
2017-01-15T04:32:42.606Z,94.32
2017-01-15T04:33:42.591Z,94.23
2017-01-15T04:34:42.578Z,94.51
2017-01-15T04:35:42.566Z,94.32
2017-01-15T04:36:42.551Z,94.23
2017-01-15T04:37:42.537Z,94.6
2017-01-15T04:38:42.521Z,94.6
2017-01-15T04:39:42.507Z,94.89
2017-01-15T04:40:42.496Z,95.64
2017-01-15T04:41:42.480Z,95.26
2017-01-15T04:42:42.468Z,95.45
2017-01-15T04:43:42.453Z,95.17
2017-01-15T04:44:42.439Z,95.26
2017-01-15T04:45:42.819Z,95.36
2017-01-15T04:46:42.411Z,95.64
2017-01-15T04:47:42.400Z,95.45
2017-01-15T04:48:42.383Z,95.55
2017-01-15T04:49:42.369Z,95.17
2017-01-15T04:50:42.358Z,95.36
2017-01-15T04:51:42.342Z,94.89
2017-01-15T04:52:42.329Z,95.07
2017-01-15T04:53:42.315Z,95.45
2017-01-15T04:54:42.301Z,95.64
2017-01-15T04:55:42.293Z,95.26
2017-01-15T04:56:42.274Z,95.17
2017-01-15T04:57:42.262Z,95.74
2017-01-15T04:58:42.244Z,95.26
2017-01-15T04:59:42.232Z,95.26
2017-01-15T05:00:42.217Z,95.83
2017-01-15T05:01:42.206Z,95.74
2017-01-15T05:02:42.200Z,96.21
2017-01-15T05:03:42.175Z,95.93
2017-01-15T05:04:42.161Z,95.64
2017-01-15T05:05:42.149Z,95.64
2017-01-15T05:06:42.137Z,95.83
2017-01-15T05:07:42.120Z,95.64
2017-01-15T05:08:42.107Z,95.36
2017-01-15T05:09:42.092Z,95.64
2017-01-15T05:10:42.079Z,95.55
2017-01-15T05:11:42.068Z,95.07
2017-01-15T05:12:42.051Z,95.83
2017-01-15T05:13:42.039Z,95.36
2017-01-15T05:14:42.023Z,95.93
2017-01-15T05:15:42.012Z,96.69
2017-01-15T05:16:41.996Z,96.88
2017-01-15T05:17:41.980Z,96.78
2017-01-15T05:18:41.968Z,96.4
2017-01-15T05:19:41.954Z,96.69
2017-01-15T05:20:41.940Z,96.97
2017-01-15T05:21:41.925Z,96.78
2017-01-15T05:22:41.913Z,96.78
2017-01-15T05:23:41.897Z,97.35
2017-01-15T05:24:41.884Z,97.35
2017-01-15T05:25:41.870Z,97.35
2017-01-15T05:26:41.854Z,97.63
2017-01-15T05:27:41.841Z,97.92
2017-01-15T05:28:41.834Z,97.92
2017-01-15T05:29:41.814Z,97.82
2017-01-15T05:30:41.801Z,98.3
2017-01-15T05:31:41.785Z,98.2
2017-01-15T05:32:41.770Z,97.54
2017-01-15T05:33:41.757Z,97.63
2017-01-15T05:34:41.743Z,97.63
2017-01-15T05:35:41.729Z,97.77
2017-01-15T05:36:41.716Z,98.2
2017-01-15T05:37:41.701Z,97.92
2017-01-15T05:38:41.685Z,98.68
2017-01-15T05:39:41.672Z,98.44
2017-01-15T05:40:41.664Z,98.44
2017-01-15T05:41:41.644Z,98.53
2017-01-15T05:42:41.633Z,98.53
2017-01-15T05:43:41.616Z,99.01
2017-01-15T05:44:41.605Z,98.96
2017-01-15T05:45:41.590Z,98.86
2017-01-15T05:46:41.575Z,99.05
2017-01-15T05:47:41.561Z,98.86
2017-01-15T05:48:41.546Z,99.24
2017-01-15T05:49:41.533Z,99.43
2017-01-15T05:50:41.518Z,99.43
2017-01-15T05:51:41.503Z,99.62
2017-01-15T05:52:41.491Z,99.33
2017-01-15T05:53:41.475Z,99.15
2017-01-15T05:54:41.462Z,99.05
2017-01-15T05:55:41.447Z,98.49
2017-01-15T05:56:41.434Z,98.68
2017-01-15T05:57:41.418Z,98.49
2017-01-15T05:58:41.404Z,98.68
2017-01-15T05:59:41.391Z,98.39
2017-01-15T06:00:41.378Z,97.73
2017-01-15T06:01:41.362Z,98.49
2017-01-15T06:02:41.349Z,98.44
2017-01-15T06:03:41.335Z,98.82
2017-01-15T06:04:41.324Z,98.58
2017-01-15T06:05:41.306Z,98.68
2017-01-15T06:06:41.291Z,98.68
2017-01-15T06:07:41.278Z,98.49
2017-01-15T06:08:41.269Z,98.49
2017-01-15T06:09:41.252Z,98.77
2017-01-15T06:10:41.237Z,99.15
2017-01-15T06:11:41.221Z,98.39
2017-01-15T06:12:41.208Z,98.3
2017-01-15T06:13:41.193Z,98.49
2017-01-15T06:14:41.179Z,98.3
2017-01-15T06:15:41.166Z,98.58
2017-01-15T06:16:41.150Z,98.68
2017-01-15T06:17:41.137Z,98.39
2017-01-15T06:18:41.123Z,98.77
2017-01-15T06:19:41.108Z,98.49
2017-01-15T06:20:41.096Z,98.49
2017-01-15T06:21:41.081Z,98.68
2017-01-15T06:22:41.068Z,97.73
2017-01-15T06:23:41.057Z,97.82
2017-01-15T06:24:41.041Z,98.77
2017-01-15T06:25:41.029Z,98.49
2017-01-15T06:26:41.011Z,98.49
2017-01-15T06:27:40.996Z,97.82
2017-01-15T06:28:40.984Z,98.68
2017-01-15T06:29:40.970Z,98.2
2017-01-15T06:30:40.957Z,98.68
2017-01-15T06:31:40.943Z,98.3
2017-01-15T06:32:40.930Z,98.39
2017-01-15T06:33:40.913Z,98.01
2017-01-15T06:34:40.903Z,98.68
2017-01-15T06:35:40.885Z,98.01
2017-01-15T06:36:40.871Z,98.2
2017-01-15T06:37:40.858Z,98.01
2017-01-15T06:38:40.844Z,98.77
2017-01-15T06:39:40.830Z,98.77
2017-01-15T06:40:40.817Z,98.96
2017-01-15T06:41:40.803Z,98.68
2017-01-15T06:42:40.787Z,97.63
2017-01-15T06:43:40.775Z,98.3
2017-01-15T06:44:40.763Z,98.11
2017-01-15T06:45:40.752Z,98.2
2017-01-15T06:46:40.734Z,98.01
2017-01-15T06:47:40.719Z,98.49
2017-01-15T06:48:40.708Z,98.96
2017-01-15T06:49:40.691Z,98.11
2017-01-15T06:50:40.677Z,98.11
2017-01-15T06:51:40.667Z,98.68
2017-01-15T06:52:40.649Z,98.68
2017-01-15T06:53:40.636Z,97.92
2017-01-15T06:54:40.620Z,98.68
2017-01-15T06:55:40.607Z,98.01
2017-01-15T06:56:40.596Z,98.3
2017-01-15T06:57:40.583Z,97.63
2017-01-15T06:58:40.566Z,97.92
2017-01-15T06:59:40.553Z,97.44
2017-01-15T07:00:40.537Z,97.54
2017-01-15T07:01:40.525Z,97.73
2017-01-15T07:02:40.512Z,97.82
2017-01-15T07:03:40.497Z,98.2
2017-01-15T07:04:40.506Z,98.77
2017-01-15T07:05:40.469Z,98.58
2017-01-15T07:06:40.458Z,98.49
2017-01-15T07:07:40.441Z,98.68
2017-01-15T07:08:40.428Z,98.68
2017-01-15T07:09:40.416Z,98.11
2017-01-15T07:10:40.401Z,97.54
2017-01-15T07:11:40.388Z,97.82
2017-01-15T07:12:40.373Z,97.59
2017-01-15T07:13:40.361Z,97.63
2017-01-15T07:14:40.347Z,97.73
2017-01-15T07:15:40.335Z,97.73
2017-01-15T07:16:40.319Z,97.82
2017-01-15T07:17:40.305Z,97.63
2017-01-15T07:18:40.291Z,97.35
2017-01-15T07:19:40.280Z,97.82
2017-01-15T07:20:40.264Z,97.73
2017-01-15T07:21:40.251Z,97.06
2017-01-15T07:22:40.240Z,97.35
2017-01-15T07:23:40.223Z,96.97
2017-01-15T07:24:40.210Z,97.16
2017-01-15T07:25:40.197Z,97.35
2017-01-15T07:26:40.182Z,97.44
2017-01-15T07:27:40.169Z,97.54
2017-01-15T07:28:40.155Z,97.73
2017-01-15T07:29:40.143Z,97.54
2017-01-15T07:30:40.128Z,98.39
2017-01-15T07:31:40.115Z,98.11
2017-01-15T07:32:40.101Z,97.44
2017-01-15T07:33:40.086Z,97.82
2017-01-15T07:34:40.074Z,97.63
2017-01-15T07:35:40.060Z,98.58
2017-01-15T07:36:40.043Z,98.58
2017-01-15T07:37:40.032Z,98.86
2017-01-15T07:38:40.017Z,98.58
2017-01-15T07:39:40.004Z,98.68
2017-01-15T07:40:39.992Z,98.58
2017-01-15T07:41:39.975Z,98.68
2017-01-15T07:42:39.963Z,98.49
2017-01-15T07:43:39.948Z,98.77
2017-01-15T07:44:39.933Z,98.77
2017-01-15T07:45:39.923Z,98.77
2017-01-15T07:46:39.908Z,98.96
2017-01-15T07:47:39.893Z,98.86
2017-01-15T07:48:39.881Z,98.49
2017-01-15T07:49:39.866Z,98.39
2017-01-15T07:50:39.852Z,98.49
2017-01-15T07:51:39.839Z,98.49
2017-01-15T07:52:39.827Z,99.05
2017-01-15T07:53:39.813Z,99.05
2017-01-15T07:54:39.797Z,99.15
2017-01-15T07:55:39.786Z,99.15
2017-01-15T07:56:39.770Z,98.58
2017-01-15T07:57:39.757Z,98.49
2017-01-15T07:58:39.741Z,99.15
2017-01-15T07:59:39.732Z,98.58
2017-01-15T08:00:39.715Z,98.63
2017-01-15T08:01:39.702Z,98.82
2017-01-15T08:02:39.687Z,98.63
2017-01-15T08:03:39.674Z,98.54
2017-01-15T08:04:39.675Z,98.72
2017-01-15T08:05:39.647Z,98.63
2017-01-15T08:06:39.635Z,98.35
2017-01-15T08:07:39.621Z,98.54
2017-01-15T08:08:39.609Z,98.54
2017-01-15T08:09:39.592Z,97.78
2017-01-15T08:10:39.579Z,98.44
2017-01-15T08:11:39.568Z,98.35
2017-01-15T08:12:39.552Z,98.63
2017-01-15T08:13:39.540Z,98.63
2017-01-15T08:14:39.528Z,97.87
2017-01-15T08:15:39.511Z,98.54
2017-01-15T08:16:39.498Z,98.54
2017-01-15T08:17:39.486Z,98.35
2017-01-15T08:18:39.471Z,98.54
2017-01-15T08:19:39.459Z,98.72
2017-01-15T08:20:39.442Z,98.63
2017-01-15T08:21:39.431Z,98.25
2017-01-15T08:22:39.417Z,98.16
2017-01-15T08:23:39.403Z,98.72
2017-01-15T08:24:39.391Z,98.25
2017-01-15T08:25:39.380Z,97.87
2017-01-15T08:26:39.364Z,97.78
2017-01-15T08:27:39.349Z,97.78
2017-01-15T08:28:39.335Z,97.68
2017-01-15T08:29:39.323Z,97.78
2017-01-15T08:30:39.308Z,97.49
2017-01-15T08:31:39.294Z,97.97
2017-01-15T08:32:39.282Z,97.87
2017-01-15T08:33:39.270Z,98.11
2017-01-15T08:34:39.253Z,97.73
2017-01-15T08:35:39.238Z,98.01
2017-01-15T08:36:39.227Z,98.39
2017-01-15T08:37:39.217Z,98.54
2017-01-15T08:38:39.498Z,98.44
2017-01-15T08:39:39.188Z,98.72
2017-01-15T08:40:39.189Z,98.54
2017-01-15T08:41:39.159Z,97.97
2017-01-15T08:42:39.148Z,98.63
2017-01-15T08:43:39.159Z,98.54
2017-01-15T08:44:39.120Z,98.35
2017-01-15T08:45:39.109Z,98.16
2017-01-15T08:46:39.094Z,98.16
2017-01-15T08:47:39.078Z,98.44
2017-01-15T08:48:39.066Z,98.82
2017-01-15T08:49:39.051Z,98.82
2017-01-15T08:50:39.038Z,98.72
2017-01-15T08:51:39.026Z,98.54
2017-01-15T08:52:39.011Z,98.63
2017-01-15T08:53:38.997Z,98.25
2017-01-15T08:54:38.984Z,98.16
2017-01-15T08:55:38.969Z,98.44
2017-01-15T08:56:38.958Z,98.82
2017-01-15T08:57:38.950Z,98.54
2017-01-15T08:58:38.932Z,98.44
2017-01-15T08:59:38.921Z,99.2
2017-01-15T09:00:38.905Z,98.82
2017-01-15T09:01:38.894Z,98.82
2017-01-15T09:02:38.878Z,98.54
2017-01-15T09:03:38.868Z,98.44
2017-01-15T09:04:38.854Z,98.63
2017-01-15T09:05:38.839Z,98.63
2017-01-15T09:06:38.829Z,98.54
2017-01-15T09:07:38.813Z,98.54
2017-01-15T09:08:38.801Z,98.63
2017-01-15T09:09:38.787Z,98.35
2017-01-15T09:10:38.777Z,98.63
2017-01-15T09:11:38.759Z,98.54
2017-01-15T09:12:38.748Z,98.54
2017-01-15T09:13:38.740Z,98.44
2017-01-15T09:14:38.723Z,98.72
2017-01-15T09:15:38.708Z,98.82
2017-01-15T09:16:38.699Z,98.44
2017-01-15T09:17:38.683Z,98.25
2017-01-15T09:18:38.670Z,97.59
2017-01-15T09:19:38.656Z,97.87
2017-01-15T09:20:38.645Z,97.87
2017-01-15T09:21:38.631Z,98.16
2017-01-15T09:22:38.618Z,98.06
2017-01-15T09:23:38.605Z,98.63
2017-01-15T09:24:38.591Z,98.25
2017-01-15T09:25:38.580Z,98.54
2017-01-15T09:26:38.565Z,98.72
2017-01-15T09:27:38.554Z,97.68
2017-01-15T09:28:38.542Z,97.68
2017-01-15T09:29:38.528Z,97.4
2017-01-15T09:30:38.513Z,97.4
2017-01-15T09:31:38.501Z,97.87
2017-01-15T09:32:38.489Z,97.59
2017-01-15T09:33:38.477Z,97.87
2017-01-15T09:34:38.462Z,97.78
2017-01-15T09:35:38.451Z,97.4
2017-01-15T09:36:38.437Z,97.21
2017-01-15T09:37:38.425Z,97.59
2017-01-15T09:38:38.413Z,97.21
2017-01-15T09:39:38.399Z,97.78
2017-01-15T09:40:38.386Z,97.59
2017-01-15T09:41:38.372Z,98.16
2017-01-15T09:42:38.360Z,98.72
2017-01-15T09:43:38.349Z,98.72
2017-01-15T09:44:38.334Z,98.72
2017-01-15T09:45:38.321Z,98.72
2017-01-15T09:46:38.315Z,97.78
2017-01-15T09:47:38.296Z,98.35
2017-01-15T09:48:38.282Z,98.44
2017-01-15T09:49:38.271Z,98.3
2017-01-15T09:50:38.259Z,98.39
2017-01-15T09:51:38.243Z,98.3
2017-01-15T09:52:38.232Z,98.3
2017-01-15T09:53:38.218Z,98.11
2017-01-15T09:54:38.207Z,97.64
2017-01-15T09:55:38.581Z,97.35
2017-01-15T09:56:38.180Z,97.64
2017-01-15T09:57:38.168Z,97.73
2017-01-15T09:58:38.163Z,97.83
2017-01-15T09:59:38.530Z,97.92
2017-01-15T10:00:38.132Z,97.73
2017-01-15T10:01:38.118Z,97.73
2017-01-15T10:02:38.104Z,97.54
2017-01-15T10:03:38.095Z,97.26
2017-01-15T10:04:38.083Z,96.69
2017-01-15T10:05:38.073Z,96.69
2017-01-15T10:06:38.056Z,96.5
2017-01-15T10:07:38.044Z,96.78
2017-01-15T10:08:38.031Z,97.26
2017-01-15T10:09:38.020Z,96.97
2017-01-15T10:10:38.006Z,96.97
2017-01-15T10:11:37.996Z,97.45
2017-01-15T10:12:37.982Z,97.07
2017-01-15T10:13:37.969Z,96.88
2017-01-15T10:14:37.956Z,96.69
2017-01-15T10:15:37.947Z,96.88
2017-01-15T10:16:37.934Z,96.59
2017-01-15T10:17:37.923Z,96.69
2017-01-15T10:18:37.911Z,97.07
2017-01-15T10:19:37.896Z,97.07
2017-01-15T10:20:37.884Z,96.97
2017-01-15T10:21:37.871Z,96.69
2017-01-15T10:22:37.860Z,96.69
2017-01-15T10:23:37.851Z,97.07
2017-01-15T10:24:37.836Z,97.26
2017-01-15T10:25:37.823Z,97.07
2017-01-15T10:26:37.812Z,97.26
2017-01-15T10:27:37.799Z,97.26
2017-01-15T10:28:37.785Z,97.16
2017-01-15T10:29:37.773Z,97.12
2017-01-15T10:30:37.762Z,97.31
2017-01-15T10:31:37.753Z,97.12
2017-01-15T10:32:37.737Z,95.31
2017-01-15T10:33:37.727Z,94.84
2017-01-15T10:34:37.714Z,94.93
2017-01-15T10:35:37.702Z,95.88
2017-01-15T10:36:37.689Z,95.69
2017-01-15T10:37:37.678Z,95.5
2017-01-15T10:38:37.668Z,95.6
2017-01-15T10:39:38.039Z,95.79
2017-01-15T10:40:37.644Z,95.31
2017-01-15T10:41:37.645Z,95.5
2017-01-15T10:42:37.620Z,95.41
2017-01-15T10:43:37.609Z,95.69
2017-01-15T10:44:37.595Z,95.69
2017-01-15T10:45:37.583Z,95.22
2017-01-15T10:46:37.571Z,95.31
2017-01-15T10:47:37.559Z,95.41
2017-01-15T10:48:37.547Z,94.93
2017-01-15T10:49:37.540Z,95.22
2017-01-15T10:50:37.525Z,95.03
2017-01-15T10:51:37.903Z,94.46
2017-01-15T10:52:37.501Z,95.03
2017-01-15T10:53:37.487Z,94.37
2017-01-15T10:54:37.478Z,93.32
2017-01-15T10:55:37.469Z,94.08
2017-01-15T10:56:37.452Z,94.37
2017-01-15T10:57:37.439Z,94.7
2017-01-15T10:58:37.429Z,95.22
2017-01-15T10:59:37.417Z,94.74
2017-01-15T11:00:37.405Z,95.12
2017-01-15T11:01:37.399Z,95.03
2017-01-15T11:02:37.382Z,95.31
2017-01-15T11:03:37.372Z,95.03
2017-01-15T11:04:37.357Z,95.22
2017-01-15T11:05:37.343Z,95.12
2017-01-15T11:06:37.333Z,94.74
2017-01-15T11:07:37.325Z,94.27
2017-01-15T11:08:37.308Z,94.27
2017-01-15T11:09:37.297Z,94.18
2017-01-15T11:10:37.314Z,94.56
2017-01-15T11:11:37.273Z,94.27
2017-01-15T11:12:37.261Z,94.93
2017-01-15T11:13:37.248Z,95.22
2017-01-15T11:14:37.626Z,95.22
2017-01-15T11:15:37.223Z,94.23
2017-01-15T11:16:37.215Z,94.32
2017-01-15T11:17:37.201Z,94.23
2017-01-15T11:18:37.189Z,94.89
2017-01-15T11:19:37.177Z,94.89
2017-01-15T11:20:37.165Z,94.98
2017-01-15T11:21:37.154Z,94.89
2017-01-15T11:22:37.141Z,95.17
2017-01-15T11:23:37.130Z,94.7
2017-01-15T11:24:37.115Z,94.89
2017-01-15T11:25:37.105Z,94.89
2017-01-15T11:26:37.098Z,94.51
2017-01-15T11:27:37.083Z,94.51
2017-01-15T11:28:37.066Z,94.7
2017-01-15T11:29:37.055Z,94.7
2017-01-15T11:30:37.048Z,95.36
2017-01-15T11:31:37.031Z,95.74
2017-01-15T11:32:37.016Z,95.65
2017-01-15T11:33:37.004Z,95.17
2017-01-15T11:34:36.992Z,94.98
2017-01-15T11:35:36.982Z,94.7
2017-01-15T11:36:36.967Z,95.07
2017-01-15T11:37:36.955Z,94.79
2017-01-15T11:38:36.944Z,95.17
2017-01-15T11:39:36.929Z,95.26
2017-01-15T11:40:36.922Z,95.74
2017-01-15T11:41:36.905Z,95.55
2017-01-15T11:42:36.894Z,95.36
2017-01-15T11:43:36.882Z,96.12
2017-01-15T11:44:36.868Z,96.22
2017-01-15T11:45:36.853Z,96.03
2017-01-15T11:46:36.842Z,95.26
2017-01-15T11:47:37.216Z,96.31
2017-01-15T11:48:36.818Z,95.74
2017-01-15T11:49:36.804Z,95.45
2017-01-15T11:50:36.791Z,95.55
2017-01-15T11:51:36.778Z,95.69
2017-01-15T11:52:36.765Z,96.12
2017-01-15T11:53:36.753Z,96.69
2017-01-15T11:54:36.741Z,96.78
2017-01-15T11:55:36.728Z,96.88
2017-01-15T11:56:36.715Z,96.78
2017-01-15T11:57:36.701Z,96.41
2017-01-15T11:58:36.690Z,96.41
2017-01-15T11:59:36.682Z,95.36
2017-01-15T12:00:36.667Z,96.31
2017-01-15T12:01:36.652Z,95.74
2017-01-15T12:02:36.641Z,96.22
2017-01-15T12:03:36.628Z,96.22
2017-01-15T12:04:36.615Z,96.12
2017-01-15T12:05:36.607Z,96.12
2017-01-15T12:06:36.590Z,96.12
2017-01-15T12:07:36.577Z,95.36
2017-01-15T12:08:36.562Z,94.6
2017-01-15T12:09:36.551Z,95.55
2017-01-15T12:10:36.538Z,95.45
2017-01-15T12:11:36.527Z,95.36
2017-01-15T12:12:36.513Z,95.84
2017-01-15T12:13:36.502Z,95.36
2017-01-15T12:14:36.489Z,95.45
2017-01-15T12:15:36.474Z,96.22
2017-01-15T12:16:36.464Z,96.03
2017-01-15T12:17:36.460Z,96.03
2017-01-15T12:18:36.438Z,96.41
2017-01-15T12:19:36.427Z,96.88
2017-01-15T12:20:36.415Z,96.12
2017-01-15T12:21:36.401Z,95.74
2017-01-15T12:22:36.386Z,95.07
2017-01-15T12:23:36.376Z,95.36
2017-01-15T12:24:36.362Z,95.26
2017-01-15T12:25:36.349Z,95.65
2017-01-15T12:26:36.339Z,95.84
2017-01-15T12:27:36.328Z,95.55
2017-01-15T12:28:36.320Z,95.74
2017-01-15T12:29:36.302Z,95.65
2017-01-15T12:30:36.288Z,95.26
2017-01-15T12:31:36.279Z,95.07
2017-01-15T12:32:36.262Z,95.17
2017-01-15T12:33:36.249Z,95.55
2017-01-15T12:34:36.240Z,95.74
2017-01-15T12:35:36.229Z,95.45
2017-01-15T12:36:36.224Z,95.74
2017-01-15T12:37:36.202Z,95.74
2017-01-15T12:38:36.189Z,95.93
2017-01-15T12:39:36.175Z,95.74
2017-01-15T12:40:36.162Z,96.03
2017-01-15T12:41:36.152Z,96.12
2017-01-15T12:42:36.146Z,95.55
2017-01-15T12:43:36.125Z,95.84
2017-01-15T12:44:36.114Z,96.12
2017-01-15T12:45:36.102Z,95.55
2017-01-15T12:46:36.088Z,95.74
2017-01-15T12:47:36.075Z,95.55
2017-01-15T12:48:36.064Z,95.74
2017-01-15T12:49:36.053Z,95.17
2017-01-15T12:50:36.041Z,95.17
2017-01-15T12:51:36.029Z,94.32
2017-01-15T12:52:36.017Z,94.79
2017-01-15T12:53:36.039Z,95.17
2017-01-15T12:54:35.987Z,94.89